Rossini — 9HA3643 — position and weather

sailwx.info

Track history (hours):
 
Tides and Currents Weather Stations Pressure Air Temp Water Temp Dewpoint Dewpoint Depression Visibility Wind Speed Wind Dir Waves Ship Positions

Rossini

Last reported at 2018-Apr-25 23:49 UTC. Time now 2018-Apr-26 06:03 UTC.
Position N 28°35' W 013°06'.

Length 207 m; draft 11.3 m.

Type: Ship (hazmat cat C). MMSI: 229824000.

Date/timePositionNaut miles runAvg speedWind from/ knotsBaromVisibWave heightAir tempDewpointWater temp
2018-Apr-25 23:49N 28°35' W 013°06'413.5
2018-Apr-25 23:30N 28°39' W 013°03'57913.2
2018-Apr-24 03:35N 35°57' W 005°36'111.0
2018-Apr-24 03:30N 35°58' W 005°35'510.6
2018-Apr-24 03:00N 35°59' W 005°28'5 9.0
2018-Apr-24 02:30N 36°01' W 005°24'510.7
2018-Apr-24 02:00N 36°07' W 005°24'2 4.1
2018-Apr-24 01:25N 36°08' W 005°26'0 0.1
2018-Apr-24 00:55N 36°08' W 005°26'0 0.0
2018-Apr-24 00:25N 36°08' W 005°26'0 0.0
2018-Apr-23 23:55N 36°08' W 005°26'0 0.0
2018-Apr-23 23:25N 36°08' W 005°26'0 0.0
2018-Apr-23 22:55N 36°08' W 005°26'0 0.0
2018-Apr-23 22:28N 36°08' W 005°26'0 0.0
2018-Apr-23 21:55N 36°08' W 005°26'0 0.0
2018-Apr-23 21:25N 36°08' W 005°26'0 0.0
2018-Apr-23 20:55N 36°08' W 005°26'0 0.0
2018-Apr-23 20:25N 36°08' W 005°26'0 0.0
2018-Apr-23 19:49N 36°08' W 005°26'0 0.0
2018-Apr-23 19:25N 36°08' W 005°26'0 0.0
2018-Apr-23 18:58N 36°08' W 005°26'0 0.0
2018-Apr-23 18:28N 36°08' W 005°26'0 0.0
2018-Apr-23 17:59N 36°08' W 005°26'0 0.0
2018-Apr-23 16:56N 36°08' W 005°26'0 0.0
2018-Apr-23 16:26N 36°08' W 005°26'0 0.0
2018-Apr-23 15:56N 36°08' W 005°26'0 0.0
2018-Apr-23 15:26N 36°08' W 005°26'0 0.0
2018-Apr-23 14:56N 36°08' W 005°26'0 0.0
2018-Apr-23 14:26N 36°08' W 005°26'0 0.0
2018-Apr-23 13:56N 36°08' W 005°26'0 0.0
2018-Apr-23 13:26N 36°08' W 005°26'0 0.0
2018-Apr-23 12:56N 36°08' W 005°26'0 0.0
2018-Apr-23 12:20N 36°08' W 005°26'0 0.0
2018-Apr-23 11:56N 36°08' W 005°26'0 0.0
2018-Apr-23 11:26N 36°08' W 005°26'0 0.0
2018-Apr-23 10:56N 36°08' W 005°26'0 0.0
2018-Apr-23 10:29N 36°08' W 005°26'0 0.0
2018-Apr-23 09:56N 36°08' W 005°26'0 0.0
2018-Apr-23 09:30N 36°08' W 005°26'1 2.6
2018-Apr-23 09:01N 36°09' W 005°25'4 8.8
2018-Apr-23 08:30N 36°05' W 005°22'3 6.6
2018-Apr-23 08:01N 36°04' W 005°18'0 0.8
2018-Apr-23 07:30N 36°04' W 005°18'1 1.2
2018-Apr-23 07:00N 36°04' W 005°17'1 1.0
2018-Apr-23 06:29N 36°04' W 005°17'0 0.8
2018-Apr-23 06:01N 36°05' W 005°17'1 2.1
2018-Apr-23 05:30N 36°05' W 005°18'4 7.3
2018-Apr-23 05:01N 36°06' W 005°14'5 3.9
2018-Apr-23 03:44N 36°08' W 005°08'2 7.9
2018-Apr-23 03:29N 36°06' W 005°08'1 1.8
2018-Apr-23 02:59N 36°06' W 005°07'4 0.2
2018-Apr-22 06:31N 36°02' W 005°07'011.6
2018-Apr-22 06:29N 36°02' W 005°08'611.8
2018-Apr-22 06:01N 36°00' W 005°14'611.0
2018-Apr-22 05:30N 35°59' W 005°21'510.6
2018-Apr-22 05:00N 35°57' W 005°27'213 4.2
2018-Apr-20 02:50N 37°08' W 009°36'610.3
2018-Apr-20 02:17N 37°14' W 009°34'310.2
2018-Apr-20 02:01N 37°16' W 009°34'510.6
2018-Apr-20 01:30N 37°22' W 009°33'510.6
2018-Apr-20 01:00N 37°27' W 009°32'510.4
2018-Apr-20 00:29N 37°32' W 009°32'510.8
2018-Apr-20 00:00N 37°38' W 009°31'510.7
2018-Apr-19 23:31N 37°43' W 009°31'610.9
2018-Apr-19 23:00N 37°48' W 009°30'611.3
2018-Apr-19 22:29N 37°54' W 009°30'511.1
2018-Apr-19 22:00N 37°59' W 009°29'611.1
2018-Apr-19 21:30N 38°05' W 009°28'611.1
2018-Apr-19 21:00N 38°11' W 009°28'611.1
2018-Apr-19 20:30N 38°16' W 009°27'611.1
2018-Apr-19 20:00N 38°22' W 009°27'611.3
2018-Apr-19 19:30N 38°27' W 009°26'611.1
2018-Apr-19 19:00N 38°33' W 009°25'510.0
2018-Apr-19 18:30N 38°37' W 009°22'510.6
2018-Apr-19 18:00N 38°41' W 009°18'610.6
2018-Apr-19 17:29N 38°42' W 009°11'0 0.1
2018-Apr-19 11:33N 38°42' W 009°10'0 0.0
2018-Apr-19 07:54N 38°42' W 009°10'0 0.0
2018-Apr-19 07:30N 38°42' W 009°10'0 0.0
2018-Apr-19 06:54N 38°42' W 009°10'0 0.0
2018-Apr-19 06:30N 38°42' W 009°10'0 0.0
2018-Apr-19 06:00N 38°42' W 009°10'2 4.3
2018-Apr-19 05:30N 38°41' W 009°13'4 7.5
2018-Apr-19 05:01N 38°41' W 009°17'713.6
2018-Apr-19 04:30N 38°36' W 009°24'815.6
2018-Apr-19 04:01N 38°29' W 009°29'815.5
2018-Apr-19 03:30N 38°22' W 009°33'815.6
2018-Apr-19 03:00N 38°15' W 009°36'815.6
2018-Apr-19 02:30N 38°08' W 009°40'815.7
2018-Apr-19 02:00N 38°00' W 009°44'915.8
2018-Apr-19 01:26N 37°52' W 009°49'715.8
2018-Apr-19 01:00N 37°46' W 009°53'1015.9
2018-Apr-19 00:23N 37°37' W 009°58'615.6
2018-Apr-18 23:59N 37°32' W 010°01'1515.5
2018-Apr-18 23:00N 37°18' W 010°09'10016.4
2018-Apr-18 16:51N 35°45' W 010°59'8516.8
2018-Apr-18 11:47N 34°28' W 011°42'1616.5
2018-Apr-18 10:49N 34°13' W 011°49'516.4
2018-Apr-18 10:30N 34°09' W 011°52'816.4
2018-Apr-18 10:00N 34°01' W 011°56'1116.6
2018-Apr-18 09:22N 33°51' W 012°01'616.7
2018-Apr-18 09:01N 33°46' W 012°04'917.0
2018-Apr-18 08:30N 33°38' W 012°08'1717.1
2018-Apr-18 07:32N 33°23' W 012°16'017.2
2018-Apr-18 07:30N 33°23' W 012°16'917.1
2018-Apr-18 07:00N 33°15' W 012°20'1117.0
2018-Apr-18 06:19N 33°04' W 012°26'5917.1
2018-Apr-18 02:51N 32°10' W 012°55'1317.4
2018-Apr-18 02:06N 31°58' W 013°01'217.0
2018-Apr-18 02:00N 31°57' W 013°02'1517.0
2018-Apr-18 01:07N 31°43' W 013°09'217.0
2018-Apr-18 01:00N 31°41' W 013°10'1017.1
2018-Apr-18 00:24N 31°31' W 013°15'1517.1
2018-Apr-17 23:32N 31°18' W 013°22'117.0
2018-Apr-17 23:30N 31°17' W 013°22'917.1
2018-Apr-17 22:57N 31°09' W 013°27'2217.0
2018-Apr-17 21:40N 30°49' W 013°37'317.0
2018-Apr-17 21:29N 30°46' W 013°38'917.0
2018-Apr-17 20:56N 30°38' W 013°43'817.2
2018-Apr-17 20:27N 30°30' W 013°47'816.8
2018-Apr-17 19:58N 30°23' W 013°51'816.5
2018-Apr-17 19:29N 30°15' W 013°55'816.7
2018-Apr-17 19:00N 30°08' W 013°59'2616.7
2018-Apr-17 17:26N 29°44' W 014°10'716.1
2018-Apr-17 17:00N 29°38' W 014°13'916.9
2018-Apr-17 16:29N 29°29' W 014°17'816.9
2018-Apr-17 16:00N 29°22' W 014°20'917.1
2018-Apr-17 15:29N 29°14' W 014°24'917.2
2018-Apr-17 14:59N 29°06' W 014°28'817.0
2018-Apr-17 14:30N 28°58' W 014°31'817.0
2018-Apr-17 14:00N 28°50' W 014°35'817.0
2018-Apr-17 13:30N 28°42' W 014°38'817.0
2018-Apr-17 13:00N 28°35' W 014°43'817.0
2018-Apr-17 12:30N 28°27' W 014°46'816.4
2018-Apr-17 12:00N 28°19' W 014°49'815.6
2018-Apr-17 11:30N 28°12' W 014°53'815.3
2018-Apr-17 11:00N 28°04' W 014°56'715.2
2018-Apr-17 10:30N 27°57' W 014°59'815.3
2018-Apr-17 09:59N 27°50' W 015°02'715.0
2018-Apr-17 09:30N 27°43' W 015°04'  
Track history (hours):
 
Tides and Currents Weather Stations Pressure Air Temp Water Temp Dewpoint Dewpoint Depression Visibility Wind Speed Wind Dir Waves Ship Positions

Rossini

Last reported at 2018-Apr-25 23:49 UTC. Time now 2018-Apr-26 06:03 UTC.
Position N 28°35' W 013°06'.

Length 207 m; draft 11.3 m.

Type: Ship (hazmat cat C). MMSI: 229824000.

Date/timePositionNaut miles runAvg speedWind from/ knotsBaromVisibWave heightAir tempDewpointWater temp
2018-Apr-25 23:49N 28°35' W 013°06'413.5
2018-Apr-25 23:30N 28°39' W 013°03'57913.2
2018-Apr-24 03:35N 35°57' W 005°36'111.0
2018-Apr-24 03:30N 35°58' W 005°35'510.6
2018-Apr-24 03:00N 35°59' W 005°28'5 9.0
2018-Apr-24 02:30N 36°01' W 005°24'510.7
2018-Apr-24 02:00N 36°07' W 005°24'2 4.1
2018-Apr-24 01:25N 36°08' W 005°26'0 0.1
2018-Apr-24 00:55N 36°08' W 005°26'0 0.0
2018-Apr-24 00:25N 36°08' W 005°26'0 0.0
2018-Apr-23 23:55N 36°08' W 005°26'0 0.0
2018-Apr-23 23:25N 36°08' W 005°26'0 0.0
2018-Apr-23 22:55N 36°08' W 005°26'0 0.0
2018-Apr-23 22:28N 36°08' W 005°26'0 0.0
2018-Apr-23 21:55N 36°08' W 005°26'0 0.0
2018-Apr-23 21:25N 36°08' W 005°26'0 0.0
2018-Apr-23 20:55N 36°08' W 005°26'0 0.0
2018-Apr-23 20:25N 36°08' W 005°26'0 0.0
2018-Apr-23 19:49N 36°08' W 005°26'0 0.0
2018-Apr-23 19:25N 36°08' W 005°26'0 0.0
2018-Apr-23 18:58N 36°08' W 005°26'0 0.0
2018-Apr-23 18:28N 36°08' W 005°26'0 0.0
2018-Apr-23 17:59N 36°08' W 005°26'0 0.0
2018-Apr-23 16:56N 36°08' W 005°26'0 0.0
2018-Apr-23 16:26N 36°08' W 005°26'0 0.0
2018-Apr-23 15:56N 36°08' W 005°26'0 0.0
2018-Apr-23 15:26N 36°08' W 005°26'0 0.0
2018-Apr-23 14:56N 36°08' W 005°26'0 0.0
2018-Apr-23 14:26N 36°08' W 005°26'0 0.0
2018-Apr-23 13:56N 36°08' W 005°26'0 0.0
2018-Apr-23 13:26N 36°08' W 005°26'0 0.0
2018-Apr-23 12:56N 36°08' W 005°26'0 0.0
2018-Apr-23 12:20N 36°08' W 005°26'0 0.0
2018-Apr-23 11:56N 36°08' W 005°26'0 0.0
2018-Apr-23 11:26N 36°08' W 005°26'0 0.0
2018-Apr-23 10:56N 36°08' W 005°26'0 0.0
2018-Apr-23 10:29N 36°08' W 005°26'0 0.0
2018-Apr-23 09:56N 36°08' W 005°26'0 0.0
2018-Apr-23 09:30N 36°08' W 005°26'1 2.6
2018-Apr-23 09:01N 36°09' W 005°25'4 8.8
2018-Apr-23 08:30N 36°05' W 005°22'3 6.6
2018-Apr-23 08:01N 36°04' W 005°18'0 0.8
2018-Apr-23 07:30N 36°04' W 005°18'1 1.2
2018-Apr-23 07:00N 36°04' W 005°17'1 1.0
2018-Apr-23 06:29N 36°04' W 005°17'0 0.8
2018-Apr-23 06:01N 36°05' W 005°17'1 2.1
2018-Apr-23 05:30N 36°05' W 005°18'4 7.3
2018-Apr-23 05:01N 36°06' W 005°14'5 3.9
2018-Apr-23 03:44N 36°08' W 005°08'2 7.9
2018-Apr-23 03:29N 36°06' W 005°08'1 1.8
2018-Apr-23 02:59N 36°06' W 005°07'4 0.2
2018-Apr-22 06:31N 36°02' W 005°07'011.6
2018-Apr-22 06:29N 36°02' W 005°08'611.8
2018-Apr-22 06:01N 36°00' W 005°14'611.0
2018-Apr-22 05:30N 35°59' W 005°21'510.6
2018-Apr-22 05:00N 35°57' W 005°27'213 4.2
2018-Apr-20 02:50N 37°08' W 009°36'610.3
2018-Apr-20 02:17N 37°14' W 009°34'310.2
2018-Apr-20 02:01N 37°16' W 009°34'510.6
2018-Apr-20 01:30N 37°22' W 009°33'510.6
2018-Apr-20 01:00N 37°27' W 009°32'510.4
2018-Apr-20 00:29N 37°32' W 009°32'510.8
2018-Apr-20 00:00N 37°38' W 009°31'510.7
2018-Apr-19 23:31N 37°43' W 009°31'610.9
2018-Apr-19 23:00N 37°48' W 009°30'611.3
2018-Apr-19 22:29N 37°54' W 009°30'511.1
2018-Apr-19 22:00N 37°59' W 009°29'611.1
2018-Apr-19 21:30N 38°05' W 009°28'611.1
2018-Apr-19 21:00N 38°11' W 009°28'611.1
2018-Apr-19 20:30N 38°16' W 009°27'611.1
2018-Apr-19 20:00N 38°22' W 009°27'611.3
2018-Apr-19 19:30N 38°27' W 009°26'611.1
2018-Apr-19 19:00N 38°33' W 009°25'510.0
2018-Apr-19 18:30N 38°37' W 009°22'510.6
2018-Apr-19 18:00N 38°41' W 009°18'610.6
2018-Apr-19 17:29N 38°42' W 009°11'0 0.1
2018-Apr-19 11:33N 38°42' W 009°10'0 0.0
2018-Apr-19 07:54N 38°42' W 009°10'0 0.0
2018-Apr-19 07:30N 38°42' W 009°10'0 0.0
2018-Apr-19 06:54N 38°42' W 009°10'0 0.0
2018-Apr-19 06:30N 38°42' W 009°10'0 0.0
2018-Apr-19 06:00N 38°42' W 009°10'2 4.3
2018-Apr-19 05:30N 38°41' W 009°13'4 7.5
2018-Apr-19 05:01N 38°41' W 009°17'713.6
2018-Apr-19 04:30N 38°36' W 009°24'815.6
2018-Apr-19 04:01N 38°29' W 009°29'815.5
2018-Apr-19 03:30N 38°22' W 009°33'815.6
2018-Apr-19 03:00N 38°15' W 009°36'815.6
2018-Apr-19 02:30N 38°08' W 009°40'815.7
2018-Apr-19 02:00N 38°00' W 009°44'915.8
2018-Apr-19 01:26N 37°52' W 009°49'715.8
2018-Apr-19 01:00N 37°46' W 009°53'1015.9
2018-Apr-19 00:23N 37°37' W 009°58'615.6
2018-Apr-18 23:59N 37°32' W 010°01'1515.5
2018-Apr-18 23:00N 37°18' W 010°09'10016.4
2018-Apr-18 16:51N 35°45' W 010°59'8516.8
2018-Apr-18 11:47N 34°28' W 011°42'1616.5
2018-Apr-18 10:49N 34°13' W 011°49'516.4
2018-Apr-18 10:30N 34°09' W 011°52'816.4
2018-Apr-18 10:00N 34°01' W 011°56'1116.6
2018-Apr-18 09:22N 33°51' W 012°01'616.7
2018-Apr-18 09:01N 33°46' W 012°04'917.0
2018-Apr-18 08:30N 33°38' W 012°08'1717.1
2018-Apr-18 07:32N 33°23' W 012°16'017.2
2018-Apr-18 07:30N 33°23' W 012°16'917.1
2018-Apr-18 07:00N 33°15' W 012°20'1117.0
2018-Apr-18 06:19N 33°04' W 012°26'5917.1
2018-Apr-18 02:51N 32°10' W 012°55'1317.4
2018-Apr-18 02:06N 31°58' W 013°01'217.0
2018-Apr-18 02:00N 31°57' W 013°02'1517.0
2018-Apr-18 01:07N 31°43' W 013°09'217.0
2018-Apr-18 01:00N 31°41' W 013°10'1017.1
2018-Apr-18 00:24N 31°31' W 013°15'1517.1
2018-Apr-17 23:32N 31°18' W 013°22'117.0
2018-Apr-17 23:30N 31°17' W 013°22'917.1
2018-Apr-17 22:57N 31°09' W 013°27'2217.0
2018-Apr-17 21:40N 30°49' W 013°37'317.0
2018-Apr-17 21:29N 30°46' W 013°38'917.0
2018-Apr-17 20:56N 30°38' W 013°43'817.2
2018-Apr-17 20:27N 30°30' W 013°47'816.8
2018-Apr-17 19:58N 30°23' W 013°51'816.5
2018-Apr-17 19:29N 30°15' W 013°55'816.7
2018-Apr-17 19:00N 30°08' W 013°59'2616.7
2018-Apr-17 17:26N 29°44' W 014°10'716.1
2018-Apr-17 17:00N 29°38' W 014°13'916.9
2018-Apr-17 16:29N 29°29' W 014°17'816.9
2018-Apr-17 16:00N 29°22' W 014°20'917.1
2018-Apr-17 15:29N 29°14' W 014°24'917.2
2018-Apr-17 14:59N 29°06' W 014°28'817.0
2018-Apr-17 14:30N 28°58' W 014°31'817.0
2018-Apr-17 14:00N 28°50' W 014°35'817.0
2018-Apr-17 13:30N 28°42' W 014°38'817.0
2018-Apr-17 13:00N 28°35' W 014°43'817.0
2018-Apr-17 12:30N 28°27' W 014°46'816.4
2018-Apr-17 12:00N 28°19' W 014°49'815.6
2018-Apr-17 11:30N 28°12' W 014°53'815.3
2018-Apr-17 11:00N 28°04' W 014°56'715.2
2018-Apr-17 10:30N 27°57' W 014°59'815.3
2018-Apr-17 09:59N 27°50' W 015°02'715.0
2018-Apr-17 09:30N 27°43' W 015°04'  

Dump ship's entire track history